Overview Statistics Trail Chart Weather Telemetry Raw packets
 

This is the latest recevied weather packets stored in our database for station/object DM8MH-13. If no packets are shown the sender has not sent any weather packets the latest 10 day(s).

<< 45 46 47 48 49 50 51 >>
Time Temp. Humidity Pressure Rain* Wind** Luminosity Snow
1787883672 20° C 79% 1010.6 hPa 0 mm - 0 W/m² -
1787883072 19.44° C 79% 1009.9 hPa 0 mm - 0 W/m² -
1787882472 19.44° C 79% 1010.1 hPa 0 mm - 0 W/m² -
1787881872 19.44° C 79% 1010 hPa 0 mm - 0 W/m² -
1787881272 19.44° C 78% 1010 hPa 0 mm - 0 W/m² -
1787880672 20° C 78% 1010 hPa 0 mm - 0 W/m² -
1787880072 20° C 78% 1010.2 hPa 0 mm - 0 W/m² -
1787879472 20° C 78% 1009.9 hPa 0 mm - 0 W/m² -
1787878878 20° C 77% 1009.9 hPa 0 mm - 0 W/m² -
1787878272 20° C 77% 1010.2 hPa 0 mm - 0 W/m² -
1787877672 20° C 77% 1010 hPa 0 mm - 0 W/m² -
1787877073 20.56° C 77% 1010.4 hPa 0 mm - 0 W/m² -
1787876472 20.56° C 77% 1010.4 hPa 0 mm - 0 W/m² -
1787875871 20.56° C 77% 1010.6 hPa 0 mm - 0 W/m² -
1787875271 20.56° C 77% 1010.6 hPa 0 mm - 0 W/m² -
1787874672 20.56° C 76% 1010.9 hPa 0 mm - 0 W/m² -
1787874072 20.56° C 76% 1011.1 hPa 0 mm - 0 W/m² -
1787873472 20.56° C 76% 1011.1 hPa 0 mm - 0 W/m² -
1787872871 20.56° C 76% 1011.1 hPa 0 mm - 0 W/m² -
1787872271 21.11° C 75% 1011.4 hPa 0 mm - 0 W/m² -
1787871671 21.11° C 75% 1011.4 hPa 0 mm - 0 W/m² -
1787871071 21.67° C 73% 1011.5 hPa 0 mm - 0 W/m² -
1787870471 21.67° C 72% 1011.6 hPa 0 mm - 0 W/m² -
1787869872 22.22° C 71% 1011.7 hPa 0 mm - 0 W/m² -
1787869272 22.22° C 70% 1011.8 hPa 0 mm - 0 W/m² -

* Rain latest hour (hover to see other rain measurements)
** Current wind speed in m/s (hover to see current wind gust speed)